createdAt,value
2017-08-01T00:00:55.623Z,22.17
2017-08-01T00:01:55.600Z,22.11
2017-08-01T00:02:55.894Z,22.12
2017-08-01T00:03:55.610Z,22.08
2017-08-01T00:04:55.565Z,21.96
2017-08-01T00:05:55.859Z,21.93
2017-08-01T00:06:55.849Z,22.02
2017-08-01T00:07:55.537Z,22.03
2017-08-01T00:08:55.513Z,22.06
2017-08-01T00:09:55.813Z,22.08
2017-08-01T00:10:55.802Z,22.08
2017-08-01T00:11:55.480Z,22.08
2017-08-01T00:12:55.461Z,22.06
2017-08-01T00:13:55.451Z,22.06
2017-08-01T00:14:55.431Z,22.1
2017-08-01T00:15:55.732Z,22.12
2017-08-01T00:16:55.421Z,22.11
2017-08-01T00:17:55.392Z,22.12
2017-08-01T00:18:55.701Z,22.05
2017-08-01T00:19:55.677Z,21.99
2017-08-01T00:20:55.355Z,21.95
2017-08-01T00:21:55.651Z,21.92
2017-08-01T00:22:55.333Z,21.97
2017-08-01T00:23:55.312Z,21.92
2017-08-01T00:24:55.303Z,21.9
2017-08-01T00:25:55.290Z,22
2017-08-01T00:26:55.274Z,21.99
2017-08-01T00:27:55.261Z,21.99
2017-08-01T00:28:55.559Z,21.95
2017-08-01T00:29:55.543Z,21.97
2017-08-01T00:30:55.535Z,21.88
2017-08-01T00:31:55.513Z,21.9
2017-08-01T00:32:55.507Z,21.95
2017-08-01T00:33:55.183Z,21.97
2017-08-01T00:34:55.481Z,21.97
2017-08-01T00:35:55.466Z,21.95
2017-08-01T00:36:55.181Z,21.9
2017-08-01T00:37:55.445Z,21.96
2017-08-01T00:38:55.139Z,21.96
2017-08-01T00:39:55.413Z,21.93
2017-08-01T00:40:55.421Z,21.99
2017-08-01T00:41:55.390Z,22
2017-08-01T00:42:55.481Z,22.02
2017-08-01T00:43:55.053Z,22.05
2017-08-01T00:44:55.373Z,22.06
2017-08-01T00:45:55.034Z,22.1
2017-08-01T00:46:55.368Z,22.08
2017-08-01T00:47:55.293Z,22.11
2017-08-01T00:48:55.301Z,22.11
2017-08-01T00:49:54.973Z,22.11
2017-08-01T00:50:55.282Z,22.08
2017-08-01T00:51:55.258Z,22.11
2017-08-01T00:52:54.944Z,22.08
2017-08-01T00:53:55.247Z,22.02
2017-08-01T00:54:55.213Z,21.93
2017-08-01T00:55:54.900Z,21.9
2017-08-01T00:56:54.884Z,21.95
2017-08-01T00:57:55.179Z,21.96
2017-08-01T00:58:55.163Z,21.93
2017-08-01T00:59:55.143Z,21.97
2017-08-01T01:00:54.842Z,21.96
2017-08-01T01:01:54.852Z,21.93
2017-08-01T01:02:55.112Z,21.92
2017-08-01T01:03:54.792Z,21.97
2017-08-01T01:04:55.101Z,21.95
2017-08-01T01:05:55.072Z,21.93
2017-08-01T01:06:54.756Z,21.99
2017-08-01T01:07:54.752Z,21.95
2017-08-01T01:08:55.032Z,22.03
2017-08-01T01:09:54.721Z,21.96
2017-08-01T01:10:54.701Z,21.93
2017-08-01T01:11:54.693Z,21.92
2017-08-01T01:12:54.661Z,21.95
2017-08-01T01:13:54.973Z,21.93
2017-08-01T01:14:54.962Z,21.96
2017-08-01T01:15:54.761Z,21.96
2017-08-01T01:16:54.622Z,21.93
2017-08-01T01:17:54.622Z,21.97
2017-08-01T01:18:54.913Z,21.93
2017-08-01T01:19:54.891Z,22.02
2017-08-01T01:20:54.584Z,21.96
2017-08-01T01:21:54.872Z,21.9
2017-08-01T01:22:54.852Z,21.83
2017-08-01T01:23:54.853Z,21.83
2017-08-01T01:24:54.819Z,21.88
2017-08-01T01:25:54.813Z,21.84
2017-08-01T01:26:54.800Z,21.77
2017-08-01T01:27:54.792Z,21.83
2017-08-01T01:28:54.773Z,21.68
2017-08-01T01:29:54.552Z,21.71
2017-08-01T01:30:54.754Z,21.55
2017-08-01T01:31:54.726Z,21.59
2017-08-01T01:32:54.459Z,21.61
2017-08-01T01:33:54.705Z,21.68
2017-08-01T01:34:54.694Z,21.64
2017-08-01T01:35:54.122Z,21.66
2017-08-01T01:36:54.363Z,21.7
2017-08-01T01:37:54.672Z,21.66
2017-08-01T01:38:54.346Z,21.79
2017-08-01T01:39:54.345Z,21.76
2017-08-01T01:40:53.989Z,21.71
2017-08-01T01:41:54.613Z,21.62
2017-08-01T01:42:54.332Z,21.68
2017-08-01T01:43:54.345Z,21.71
2017-08-01T01:44:54.569Z,21.71
2017-08-01T01:45:54.554Z,21.73
2017-08-01T01:46:54.612Z,21.8
2017-08-01T01:47:54.521Z,21.68
2017-08-01T01:48:54.213Z,21.81
2017-08-01T01:49:54.226Z,21.74
2017-08-01T01:50:54.502Z,21.74
2017-08-01T01:51:54.158Z,21.77
2017-08-01T01:52:54.202Z,21.81
2017-08-01T01:53:54.143Z,21.83
2017-08-01T01:54:54.472Z,21.77
2017-08-01T01:55:54.130Z,21.86
2017-08-01T01:56:54.126Z,21.86
2017-08-01T01:57:54.096Z,21.76
2017-08-01T01:58:53.763Z,21.76
2017-08-01T01:59:54.052Z,21.88
2017-08-01T02:00:53.742Z,21.84
2017-08-01T02:01:54.402Z,21.81
2017-08-01T02:02:54.321Z,21.86
2017-08-01T02:03:54.015Z,21.77
2017-08-01T02:04:54.302Z,21.81
2017-08-01T02:05:54.283Z,21.79
2017-08-01T02:06:53.982Z,21.71
2017-08-01T02:07:53.953Z,21.74
2017-08-01T02:08:54.252Z,21.8
2017-08-01T02:09:54.242Z,21.73
2017-08-01T02:10:53.920Z,21.76
2017-08-01T02:11:53.894Z,21.79
2017-08-01T02:12:53.881Z,21.79
2017-08-01T02:13:54.172Z,21.74
2017-08-01T02:14:53.861Z,21.81
2017-08-01T02:15:53.845Z,21.73
2017-08-01T02:16:53.822Z,21.68
2017-08-01T02:17:53.813Z,21.66
2017-08-01T02:18:53.804Z,21.64
2017-08-01T02:19:53.791Z,21.68
2017-08-01T02:20:54.092Z,21.66
2017-08-01T02:21:54.103Z,21.65
2017-08-01T02:22:54.071Z,21.68
2017-08-01T02:23:53.731Z,21.66
2017-08-01T02:24:54.031Z,21.59
2017-08-01T02:25:54.017Z,21.65
2017-08-01T02:26:54.003Z,21.65
2017-08-01T02:27:53.691Z,21.56
2017-08-01T02:28:53.992Z,21.56
2017-08-01T02:29:53.992Z,21.47
2017-08-01T02:30:53.964Z,21.47
2017-08-01T02:31:53.652Z,21.47
2017-08-01T02:32:53.623Z,21.43
2017-08-01T02:33:53.913Z,21.49
2017-08-01T02:34:53.911Z,21.5
2017-08-01T02:35:53.881Z,21.47
2017-08-01T02:36:53.884Z,21.41
2017-08-01T02:37:53.866Z,21.37
2017-08-01T02:38:53.843Z,21.43
2017-08-01T02:39:53.522Z,21.44
2017-08-01T02:40:53.524Z,21.4
2017-08-01T02:41:53.802Z,21.43
2017-08-01T02:42:53.492Z,21.41
2017-08-01T02:43:53.802Z,21.44
2017-08-01T02:44:53.449Z,21.43
2017-08-01T02:45:53.443Z,21.34
2017-08-01T02:46:53.729Z,21.24
2017-08-01T02:47:53.717Z,21.29
2017-08-01T02:48:53.091Z,21.36
2017-08-01T02:49:53.692Z,21.29
2017-08-01T02:50:53.693Z,21.28
2017-08-01T02:51:53.682Z,21.24
2017-08-01T02:52:53.663Z,21.22
2017-08-01T02:53:53.648Z,21.22
2017-08-01T02:54:53.634Z,21.28
2017-08-01T02:55:53.300Z,21.25
2017-08-01T02:56:53.292Z,21.29
2017-08-01T02:57:53.604Z,21.21
2017-08-01T02:58:53.262Z,21.21
2017-08-01T02:59:53.256Z,21.1
2017-08-01T03:00:53.234Z,21.1
2017-08-01T03:01:53.532Z,21.13
2017-08-01T03:02:53.523Z,21.07
2017-08-01T03:03:53.503Z,21.06
2017-08-01T03:04:53.487Z,21.1
2017-08-01T03:05:52.870Z,21.04
2017-08-01T03:06:53.474Z,21.1
2017-08-01T03:07:53.153Z,21.18
2017-08-01T03:08:52.924Z,21.04
2017-08-01T03:09:53.113Z,21.07
2017-08-01T03:10:53.189Z,21.17
2017-08-01T03:11:53.402Z,21.09
2017-08-01T03:12:53.463Z,21.02
2017-08-01T03:13:53.055Z,20.99
2017-08-01T03:14:53.132Z,20.94
2017-08-01T03:15:53.341Z,20.81
2017-08-01T03:16:53.043Z,20.84
2017-08-01T03:17:53.012Z,20.82
2017-08-01T03:18:53.090Z,20.82
2017-08-01T03:19:52.675Z,20.87
2017-08-01T03:20:52.990Z,20.94
2017-08-01T03:21:53.252Z,20.82
2017-08-01T03:22:53.384Z,20.87
2017-08-01T03:23:53.231Z,20.94
2017-08-01T03:24:52.715Z,20.89
2017-08-01T03:25:52.889Z,20.94
2017-08-01T03:26:53.202Z,20.92
2017-08-01T03:27:52.873Z,20.95
2017-08-01T03:28:53.155Z,20.95
2017-08-01T03:29:52.844Z,20.95
2017-08-01T03:30:52.871Z,21
2017-08-01T03:31:53.181Z,20.94
2017-08-01T03:32:52.849Z,20.92
2017-08-01T03:33:53.107Z,20.89
2017-08-01T03:34:52.771Z,20.84
2017-08-01T03:35:53.082Z,20.76
2017-08-01T03:36:53.041Z,20.82
2017-08-01T03:37:52.752Z,20.85
2017-08-01T03:38:53.033Z,20.84
2017-08-01T03:39:53.082Z,20.82
2017-08-01T03:40:53.000Z,20.79
2017-08-01T03:41:52.990Z,20.84
2017-08-01T03:42:52.971Z,20.92
2017-08-01T03:43:52.650Z,20.81
2017-08-01T03:44:52.926Z,20.84
2017-08-01T03:45:52.926Z,20.88
2017-08-01T03:46:52.912Z,20.87
2017-08-01T03:47:52.914Z,20.82
2017-08-01T03:48:52.884Z,20.81
2017-08-01T03:49:52.865Z,20.76
2017-08-01T03:50:52.852Z,20.7
2017-08-01T03:51:52.867Z,20.73
2017-08-01T03:52:52.831Z,20.73
2017-08-01T03:53:52.822Z,20.72
2017-08-01T03:54:52.808Z,20.74
2017-08-01T03:55:52.792Z,20.76
2017-08-01T03:56:52.772Z,20.74
2017-08-01T03:57:52.752Z,20.62
2017-08-01T03:58:52.752Z,20.72
2017-08-01T03:59:52.481Z,20.67
2017-08-01T04:00:52.419Z,20.67
2017-08-01T04:01:52.709Z,20.7
2017-08-01T04:02:52.695Z,20.58
2017-08-01T04:03:52.678Z,20.62
2017-08-01T04:04:52.349Z,20.57
2017-08-01T04:05:52.352Z,20.62
2017-08-01T04:06:52.339Z,20.69
2017-08-01T04:07:52.072Z,20.6
2017-08-01T04:08:52.611Z,20.57
2017-08-01T04:09:52.287Z,20.69
2017-08-01T04:10:52.358Z,20.57
2017-08-01T04:11:52.562Z,20.54
2017-08-01T04:12:51.933Z,20.57
2017-08-01T04:13:52.552Z,20.62
2017-08-01T04:14:52.515Z,20.66
2017-08-01T04:15:51.891Z,20.63
2017-08-01T04:16:52.192Z,20.57
2017-08-01T04:17:52.172Z,20.7
2017-08-01T04:18:52.182Z,20.62
2017-08-01T04:19:52.445Z,20.7
2017-08-01T04:20:52.445Z,20.69
2017-08-01T04:21:52.420Z,20.7
2017-08-01T04:22:52.125Z,20.69
2017-08-01T04:23:52.092Z,20.69
2017-08-01T04:24:52.380Z,20.64
2017-08-01T04:25:52.050Z,20.7
2017-08-01T04:26:52.352Z,20.72
2017-08-01T04:27:52.350Z,20.74
2017-08-01T04:28:51.713Z,20.79
2017-08-01T04:29:52.312Z,20.78
2017-08-01T04:30:52.302Z,20.79
2017-08-01T04:31:52.281Z,20.87
2017-08-01T04:32:52.402Z,20.79
2017-08-01T04:33:51.949Z,20.82
2017-08-01T04:34:51.622Z,20.84
2017-08-01T04:35:51.938Z,20.87
2017-08-01T04:36:51.590Z,20.79
2017-08-01T04:37:52.199Z,20.76
2017-08-01T04:38:51.879Z,20.92
2017-08-01T04:39:52.174Z,20.89
2017-08-01T04:40:51.861Z,20.92
2017-08-01T04:41:52.258Z,20.89
2017-08-01T04:42:51.518Z,20.95
2017-08-01T04:43:51.815Z,20.97
2017-08-01T04:44:51.483Z,21
2017-08-01T04:45:52.090Z,21.04
2017-08-01T04:46:51.758Z,21.03
2017-08-01T04:47:52.224Z,21.04
2017-08-01T04:48:51.742Z,21.06
2017-08-01T04:49:51.733Z,21.1
2017-08-01T04:50:52.010Z,21.13
2017-08-01T04:51:52.012Z,21.1
2017-08-01T04:52:51.981Z,21.1
2017-08-01T04:53:51.976Z,20.97
2017-08-01T04:54:51.965Z,21.02
2017-08-01T04:55:51.340Z,21.11
2017-08-01T04:56:51.634Z,21.04
2017-08-01T04:57:51.627Z,21.1
2017-08-01T04:58:51.612Z,21.03
2017-08-01T04:59:51.592Z,21.11
2017-08-01T05:00:51.902Z,21.1
2017-08-01T05:01:51.884Z,21.07
2017-08-01T05:02:51.861Z,21.19
2017-08-01T05:03:51.541Z,21.1
2017-08-01T05:04:51.752Z,21.07
2017-08-01T05:05:51.511Z,21.17
2017-08-01T05:06:51.534Z,21.19
2017-08-01T05:07:51.173Z,21.07
2017-08-01T05:08:51.782Z,21.06
2017-08-01T05:09:51.452Z,21.19
2017-08-01T05:10:51.751Z,21.1
2017-08-01T05:11:51.723Z,21.04
2017-08-01T05:12:51.731Z,21.07
2017-08-01T05:13:51.713Z,21.09
2017-08-01T05:14:51.410Z,21.06
2017-08-01T05:15:51.708Z,21.04
2017-08-01T05:16:51.671Z,21.04
2017-08-01T05:17:51.364Z,21.06
2017-08-01T05:18:51.649Z,21.11
2017-08-01T05:19:51.333Z,21.03
2017-08-01T05:20:51.601Z,21.07
2017-08-01T05:21:51.602Z,21.13
2017-08-01T05:22:51.281Z,21.09
2017-08-01T05:23:51.273Z,21.03
2017-08-01T05:24:50.949Z,21.21
2017-08-01T05:25:52.418Z,21.19
2017-08-01T05:26:51.521Z,21.21
2017-08-01T05:27:51.521Z,21.25
2017-08-01T05:28:51.211Z,21.17
2017-08-01T05:29:51.481Z,21.24
2017-08-01T05:30:51.690Z,21.28
2017-08-01T05:31:51.471Z,21.25
2017-08-01T05:32:51.142Z,21.33
2017-08-01T05:33:51.141Z,21.36
2017-08-01T05:34:51.421Z,21.34
2017-08-01T05:35:50.792Z,21.4
2017-08-01T05:36:51.093Z,21.34
2017-08-01T05:37:51.071Z,21.33
2017-08-01T05:38:51.363Z,21.25
2017-08-01T05:39:51.361Z,21.26
2017-08-01T05:40:51.052Z,21.18
2017-08-01T05:41:51.313Z,21.25
2017-08-01T05:42:51.112Z,21.17
2017-08-01T05:43:51.014Z,21.13
2017-08-01T05:44:50.714Z,21.18
2017-08-01T05:45:50.973Z,21.17
2017-08-01T05:46:51.251Z,21.21
2017-08-01T05:47:51.261Z,21.31
2017-08-01T05:48:51.231Z,21.29
2017-08-01T05:49:50.931Z,21.26
2017-08-01T05:50:50.602Z,21.34
2017-08-01T05:51:51.199Z,21.39
2017-08-01T05:52:50.903Z,21.39
2017-08-01T05:53:50.563Z,21.41
2017-08-01T05:54:50.850Z,21.47
2017-08-01T05:55:50.871Z,21.5
2017-08-01T05:56:51.263Z,21.58
2017-08-01T05:57:50.820Z,21.46
2017-08-01T05:58:50.804Z,21.44
2017-08-01T05:59:51.101Z,21.47
2017-08-01T06:00:51.122Z,21.44
2017-08-01T06:01:51.141Z,21.33
2017-08-01T06:02:50.774Z,21.4
2017-08-01T06:03:51.135Z,21.34
2017-08-01T06:04:50.742Z,21.44
2017-08-01T06:05:50.705Z,21.39
2017-08-01T06:06:50.701Z,21.43
2017-08-01T06:07:50.681Z,21.46
2017-08-01T06:08:50.681Z,21.41
2017-08-01T06:09:50.662Z,21.47
2017-08-01T06:10:50.680Z,21.4
2017-08-01T06:11:50.946Z,21.28
2017-08-01T06:12:51.169Z,21.34
2017-08-01T06:13:50.912Z,21.36
2017-08-01T06:14:50.988Z,21.43
2017-08-01T06:15:50.613Z,21.5
2017-08-01T06:16:50.664Z,21.46
2017-08-01T06:17:50.863Z,21.58
2017-08-01T06:18:50.533Z,21.49
2017-08-01T06:19:50.524Z,21.55
2017-08-01T06:20:50.505Z,21.65
2017-08-01T06:21:50.501Z,21.62
2017-08-01T06:22:50.483Z,21.8
2017-08-01T06:23:50.828Z,21.84
2017-08-01T06:24:50.767Z,21.92
2017-08-01T06:25:50.753Z,22.02
2017-08-01T06:26:50.788Z,22
2017-08-01T06:27:50.734Z,21.96
2017-08-01T06:28:50.403Z,22.03
2017-08-01T06:29:50.722Z,22.03
2017-08-01T06:30:50.377Z,22.08
2017-08-01T06:31:50.368Z,21.95
2017-08-01T06:32:50.662Z,21.83
2017-08-01T06:33:50.655Z,21.93
2017-08-01T06:34:50.644Z,21.95
2017-08-01T06:35:50.314Z,22
2017-08-01T06:36:50.622Z,22.18
2017-08-01T06:37:50.593Z,22.08
2017-08-01T06:38:50.579Z,22.12
2017-08-01T06:39:50.571Z,22.12
2017-08-01T06:40:49.944Z,22.08
2017-08-01T06:41:50.571Z,22.14
2017-08-01T06:42:50.539Z,22.17
2017-08-01T06:43:50.525Z,22.3
2017-08-01T06:44:50.516Z,22.27
2017-08-01T06:45:50.980Z,22.39
2017-08-01T06:46:50.489Z,22.4
2017-08-01T06:47:50.469Z,22.62
2017-08-01T06:48:50.464Z,22.65
2017-08-01T06:49:50.140Z,22.74
2017-08-01T06:50:50.435Z,22.84
2017-08-01T06:51:50.422Z,22.88
2017-08-01T06:52:49.804Z,22.89
2017-08-01T06:53:50.403Z,22.65
2017-08-01T06:54:50.392Z,22.62
2017-08-01T06:55:50.383Z,22.65
2017-08-01T06:56:50.372Z,22.7
2017-08-01T06:57:50.354Z,22.79
2017-08-01T06:58:50.354Z,22.91
2017-08-01T06:59:50.323Z,22.94
2017-08-01T07:00:50.345Z,22.92
2017-08-01T07:01:50.312Z,22.97
2017-08-01T07:02:50.522Z,23.02
2017-08-01T07:03:50.289Z,23.12
2017-08-01T07:04:50.316Z,23.24
2017-08-01T07:05:49.987Z,23.27
2017-08-01T07:06:50.258Z,23.33
2017-08-01T07:07:49.939Z,23.45
2017-08-01T07:08:50.282Z,23.41
2017-08-01T07:09:49.901Z,23.47
2017-08-01T07:10:49.913Z,23.33
2017-08-01T07:11:49.885Z,23.4
2017-08-01T07:12:49.876Z,23.33
2017-08-01T07:13:50.173Z,23.32
2017-08-01T07:14:49.843Z,23.35
2017-08-01T07:15:49.528Z,23.38
2017-08-01T07:16:49.828Z,23.42
2017-08-01T07:17:50.117Z,23.25
2017-08-01T07:18:49.513Z,23.16
2017-08-01T07:19:49.772Z,23.22
2017-08-01T07:20:50.084Z,23.33
2017-08-01T07:21:50.177Z,23.36
2017-08-01T07:22:49.771Z,23.45
2017-08-01T07:23:50.052Z,23.52
2017-08-01T07:24:50.031Z,23.59
2017-08-01T07:25:49.732Z,23.72
2017-08-01T07:26:50.024Z,23.81
2017-08-01T07:27:50.113Z,23.85
2017-08-01T07:28:49.682Z,23.81
2017-08-01T07:29:50.015Z,24
2017-08-01T07:30:49.972Z,23.92
2017-08-01T07:31:49.342Z,24.03
2017-08-01T07:32:49.953Z,23.97
2017-08-01T07:33:49.951Z,24.09
2017-08-01T07:34:49.619Z,24.09
2017-08-01T07:35:49.914Z,24.14
2017-08-01T07:36:49.610Z,24.17
2017-08-01T07:37:49.902Z,24.12
2017-08-01T07:38:49.589Z,24.22
2017-08-01T07:39:49.564Z,24.33
2017-08-01T07:40:49.563Z,24.42
2017-08-01T07:41:49.853Z,24.57
2017-08-01T07:42:49.533Z,24.32
2017-08-01T07:43:49.822Z,24.32
2017-08-01T07:44:49.202Z,24.39
2017-08-01T07:45:49.500Z,24.61
2017-08-01T07:46:49.792Z,24.62
2017-08-01T07:47:49.801Z,24.77
2017-08-01T07:48:50.021Z,24.54
2017-08-01T07:49:49.765Z,24.46
2017-08-01T07:50:49.778Z,24.47
2017-08-01T07:51:49.754Z,24.51
2017-08-01T07:52:49.669Z,24.32
2017-08-01T07:53:49.430Z,24.12
2017-08-01T07:54:49.412Z,24.15
2017-08-01T07:55:49.714Z,24.33
2017-08-01T07:56:49.403Z,24.65
2017-08-01T07:57:49.690Z,24.99
2017-08-01T07:58:49.682Z,25.14
2017-08-01T07:59:49.661Z,25.4
2017-08-01T08:00:49.663Z,25.36
2017-08-01T08:01:49.342Z,25.37
2017-08-01T08:02:49.332Z,25.48
2017-08-01T08:03:49.629Z,25.45
2017-08-01T08:04:49.628Z,25.59
2017-08-01T08:05:49.600Z,25.56
2017-08-01T08:06:49.335Z,25.63
2017-08-01T08:07:49.291Z,25.62
2017-08-01T08:08:49.594Z,25.48
2017-08-01T08:09:49.279Z,24.87
2017-08-01T08:10:49.797Z,24.74
2017-08-01T08:11:48.967Z,24.75
2017-08-01T08:12:49.799Z,24.77
2017-08-01T08:13:49.522Z,24.69
2017-08-01T08:14:48.960Z,24.61
2017-08-01T08:15:49.729Z,24.61
2017-08-01T08:16:49.559Z,24.61
2017-08-01T08:18:49.501Z,24.43
2017-08-01T08:19:49.161Z,24.15
2017-08-01T08:20:49.161Z,23.97
2017-08-01T08:21:49.482Z,23.77
2017-08-01T08:22:49.141Z,23.82
2017-08-01T08:23:49.142Z,23.77
2017-08-01T08:24:49.432Z,23.82
2017-08-01T08:25:49.410Z,23.77
2017-08-01T08:26:49.401Z,23.87
2017-08-01T08:27:49.480Z,23.97
2017-08-01T08:28:49.423Z,24.1
2017-08-01T08:29:49.049Z,23.99
2017-08-01T08:30:49.061Z,23.97
2017-08-01T08:31:49.372Z,24.07
2017-08-01T08:32:49.532Z,24.12
2017-08-01T08:33:49.372Z,24.14
2017-08-01T08:34:49.320Z,24.22
2017-08-01T08:35:49.301Z,24.25
2017-08-01T08:36:48.674Z,24.07
2017-08-01T08:37:49.491Z,23.88
2017-08-01T08:38:49.280Z,23.81
2017-08-01T08:39:49.083Z,23.8
2017-08-01T08:40:49.260Z,24
2017-08-01T08:41:48.936Z,24.12
2017-08-01T08:42:49.224Z,24.39
2017-08-01T08:43:49.267Z,24.54
2017-08-01T08:44:49.210Z,24.55
2017-08-01T08:45:49.186Z,24.37
2017-08-01T08:46:48.876Z,24.27
2017-08-01T08:47:49.173Z,24.25
2017-08-01T08:48:48.570Z,24.39
2017-08-01T08:49:49.153Z,24.51
2017-08-01T08:50:49.138Z,24.54
2017-08-01T08:51:49.131Z,24.33
2017-08-01T08:52:48.812Z,24.39
2017-08-01T08:53:49.100Z,24.65
2017-08-01T08:54:49.111Z,24.49
2017-08-01T08:55:48.802Z,24.57
2017-08-01T08:56:49.210Z,24.59
2017-08-01T08:57:48.772Z,24.75
2017-08-01T08:58:49.046Z,24.8
2017-08-01T08:59:48.786Z,24.8
2017-08-01T09:00:48.730Z,24.93
2017-08-01T09:01:49.041Z,25.05
2017-08-01T09:02:49.148Z,25.18
2017-08-01T09:03:48.741Z,25.25
2017-08-01T09:04:48.690Z,25.11
2017-08-01T09:05:49.010Z,25.02
2017-08-01T09:06:49.220Z,24.82
2017-08-01T09:07:48.670Z,24.81
2017-08-01T09:08:48.950Z,24.85
2017-08-01T09:09:48.940Z,25.07
2017-08-01T09:10:48.689Z,25.1
2017-08-01T09:11:48.639Z,25.11
2017-08-01T09:12:48.719Z,25.14
2017-08-01T09:13:48.290Z,25.22
2017-08-01T09:14:48.589Z,25.27
2017-08-01T09:15:48.570Z,25.15
2017-08-01T09:16:48.881Z,25.29
2017-08-01T09:17:48.556Z,25.11
2017-08-01T09:18:48.530Z,25.14
2017-08-01T09:19:48.231Z,25.18
2017-08-01T09:20:48.576Z,25.12
2017-08-01T09:21:48.899Z,25.11
2017-08-01T09:22:48.900Z,25.18
2017-08-01T09:23:48.489Z,25.1
2017-08-01T09:24:48.480Z,25.12
2017-08-01T09:25:48.491Z,25.14
2017-08-01T09:26:48.169Z,25.14
2017-08-01T09:27:48.792Z,25.05
2017-08-01T09:28:48.790Z,25.05
2017-08-01T09:29:48.429Z,25.1
2017-08-01T09:30:48.424Z,25
2017-08-01T09:31:48.408Z,24.93
2017-08-01T09:32:48.410Z,24.82
2017-08-01T09:33:48.711Z,24.75
2017-08-01T09:34:48.690Z,24.77
2017-08-01T09:35:48.692Z,24.71
2017-08-01T09:36:48.062Z,24.55
2017-08-01T09:37:48.682Z,24.57
2017-08-01T09:38:48.341Z,24.42
2017-08-01T09:39:48.339Z,24.28
2017-08-01T09:40:48.630Z,24.12
2017-08-01T09:41:48.623Z,24.1
2017-08-01T09:42:48.607Z,24.09
2017-08-01T09:43:48.604Z,24.09
2017-08-01T09:44:47.992Z,24.07
2017-08-01T09:45:47.973Z,23.96
2017-08-01T09:46:48.257Z,23.95
2017-08-01T09:47:48.550Z,23.85
2017-08-01T09:48:48.225Z,23.81
2017-08-01T09:49:48.225Z,23.73
2017-08-01T09:50:47.912Z,23.84
2017-08-01T09:51:47.907Z,23.97
2017-08-01T09:52:48.181Z,24.09
2017-08-01T09:53:48.195Z,24
2017-08-01T09:54:48.481Z,23.92
2017-08-01T09:55:48.163Z,23.89
2017-08-01T09:56:48.149Z,23.96
2017-08-01T09:57:48.124Z,23.95
2017-08-01T09:58:48.474Z,23.81
2017-08-01T09:59:48.422Z,23.65
2017-08-01T10:00:48.504Z,23.73
2017-08-01T10:01:48.429Z,23.7
2017-08-01T10:02:48.406Z,23.72
2017-08-01T10:03:48.079Z,23.95
2017-08-01T10:04:48.059Z,23.82
2017-08-01T10:05:48.350Z,23.75
2017-08-01T10:06:48.029Z,23.75
2017-08-01T10:07:48.026Z,23.81
2017-08-01T10:08:48.016Z,23.84
2017-08-01T10:09:48.313Z,23.88
2017-08-01T10:10:48.300Z,23.95
2017-08-01T10:11:48.284Z,24.06
2017-08-01T10:12:48.279Z,24.04
2017-08-01T10:13:47.953Z,24.1
2017-08-01T10:14:47.956Z,24.02
2017-08-01T10:15:48.240Z,23.89
2017-08-01T10:16:48.245Z,23.69
2017-08-01T10:17:48.212Z,23.78
2017-08-01T10:18:48.201Z,23.92
2017-08-01T10:19:47.903Z,23.99
2017-08-01T10:20:47.870Z,24.02
2017-08-01T10:21:48.433Z,23.88
2017-08-01T10:22:48.173Z,23.78
2017-08-01T10:23:47.842Z,23.67
2017-08-01T10:24:48.152Z,23.54
2017-08-01T10:25:48.126Z,23.45
2017-08-01T10:26:47.522Z,23.52
2017-08-01T10:27:48.102Z,23.57
2017-08-01T10:28:48.086Z,23.73
2017-08-01T10:29:48.095Z,23.81
2017-08-01T10:30:47.792Z,23.96
2017-08-01T10:31:47.751Z,23.99
2017-08-01T10:32:48.049Z,24.24
2017-08-01T10:33:48.045Z,24.29
2017-08-01T10:34:48.028Z,24.49
2017-08-01T10:35:48.009Z,24.32
2017-08-01T10:36:48.228Z,24.43
2017-08-01T10:37:48.005Z,24.71
2017-08-01T10:38:47.982Z,24.89
2017-08-01T10:39:47.972Z,25.22
2017-08-01T10:40:47.962Z,25.56
2017-08-01T10:41:47.958Z,25.84
2017-08-01T10:42:47.945Z,25.69
2017-08-01T10:43:47.925Z,25.54
2017-08-01T10:44:47.918Z,25.77
2017-08-01T10:45:47.614Z,25.99
2017-08-01T10:46:47.917Z,26.45
2017-08-01T10:47:47.897Z,26.69
2017-08-01T10:48:47.881Z,26.96
2017-08-01T10:49:47.872Z,26.97
2017-08-01T10:50:47.552Z,27.25
2017-08-01T10:51:47.871Z,27.55
2017-08-01T10:52:47.537Z,27.91
2017-08-01T10:53:47.557Z,28.08
2017-08-01T10:54:47.823Z,27.69
2017-08-01T10:55:47.510Z,27.31
2017-08-01T10:56:47.797Z,27.09
2017-08-01T10:57:47.500Z,27.01
2017-08-01T10:58:48.053Z,27.03
2017-08-01T10:59:47.516Z,26.94
2017-08-01T11:00:47.480Z,27.04
2017-08-01T11:01:47.833Z,27.12
2017-08-01T11:02:47.753Z,27.22
2017-08-01T11:03:47.599Z,27.06
2017-08-01T11:04:47.732Z,27.12
2017-08-01T11:05:47.793Z,27.15
2017-08-01T11:06:47.411Z,27.19
2017-08-01T11:07:47.750Z,27.03
2017-08-01T11:08:47.723Z,27.06
2017-08-01T11:09:47.394Z,27.13
2017-08-01T11:10:47.695Z,27.16
2017-08-01T11:11:47.381Z,27.3
2017-08-01T11:12:47.680Z,26.64
2017-08-01T11:13:47.664Z,26.48
2017-08-01T11:14:47.722Z,26.2
2017-08-01T11:15:47.649Z,26.22
2017-08-01T11:16:47.360Z,26.06
2017-08-01T11:17:47.619Z,26.23
2017-08-01T11:18:47.622Z,26.44
2017-08-01T11:19:47.312Z,26.59
2017-08-01T11:20:47.621Z,26.75
2017-08-01T11:21:47.645Z,27.04
2017-08-01T11:22:47.591Z,27.4
2017-08-01T11:23:47.590Z,27.53
2017-08-01T11:24:47.563Z,27.68
2017-08-01T11:25:46.932Z,27.88
2017-08-01T11:26:47.542Z,27.84
2017-08-01T11:27:47.539Z,27.28
2017-08-01T11:28:46.964Z,27.12
2017-08-01T11:29:47.532Z,26.97
2017-08-01T11:30:47.550Z,26.74
2017-08-01T11:31:47.522Z,26.84
2017-08-01T11:32:47.221Z,27
2017-08-01T11:33:48.111Z,27.28
2017-08-01T11:34:47.501Z,27.44
2017-08-01T11:35:46.853Z,27.57
2017-08-01T11:36:47.470Z,27.59
2017-08-01T11:37:46.839Z,27.61
2017-08-01T11:38:47.200Z,27.76
2017-08-01T11:39:47.454Z,27.71
2017-08-01T11:40:47.495Z,27.9
2017-08-01T11:41:47.462Z,28.01
2017-08-01T11:42:47.131Z,27.94
2017-08-01T11:43:47.461Z,27.38
2017-08-01T11:44:47.114Z,26.94
2017-08-01T11:45:47.090Z,26.82
2017-08-01T11:46:47.182Z,26.89
2017-08-01T11:47:47.413Z,26.98
2017-08-01T11:48:47.491Z,26.97
2017-08-01T11:49:47.394Z,27
2017-08-01T11:50:47.413Z,26.78
2017-08-01T11:51:47.036Z,26.66
2017-08-01T11:52:47.030Z,26.57
2017-08-01T11:53:47.131Z,26.56
2017-08-01T11:54:47.032Z,26.57
2017-08-01T11:55:47.331Z,26.61
2017-08-01T11:56:47.003Z,26.63
2017-08-01T11:57:47.199Z,26.23
2017-08-01T11:58:47.311Z,25.96
2017-08-01T11:59:46.971Z,25.82
2017-08-01T12:00:47.259Z,25.84
2017-08-01T12:01:47.324Z,25.85
2017-08-01T12:02:46.952Z,26
2017-08-01T12:03:47.243Z,25.85
2017-08-01T12:04:46.603Z,26.04
2017-08-01T12:05:47.222Z,25.95
2017-08-01T12:06:47.433Z,25.92
2017-08-01T12:07:47.244Z,26.06
2017-08-01T12:08:46.941Z,26.24
2017-08-01T12:09:47.190Z,26.11
2017-08-01T12:10:47.171Z,26.08
2017-08-01T12:11:46.863Z,26.11
2017-08-01T12:12:47.161Z,26.13
2017-08-01T12:13:47.144Z,26.07
2017-08-01T12:14:47.131Z,26.17
2017-08-01T12:15:47.130Z,26.23
2017-08-01T12:16:46.901Z,26.15
2017-08-01T12:17:47.103Z,26.11
2017-08-01T12:18:47.094Z,26.08
2017-08-01T12:19:46.770Z,26.03
2017-08-01T12:20:47.289Z,26.04
2017-08-01T12:21:47.057Z,25.96
2017-08-01T12:22:47.090Z,25.96
2017-08-01T12:23:46.736Z,25.95
2017-08-01T12:24:46.738Z,26.11
2017-08-01T12:25:47.020Z,26.08
2017-08-01T12:26:47.049Z,26.26
2017-08-01T12:27:46.690Z,26.15
2017-08-01T12:28:46.692Z,26.17
2017-08-01T12:29:46.683Z,26.22
2017-08-01T12:30:46.741Z,26.15
2017-08-01T12:31:47.205Z,26.08
2017-08-01T12:32:46.339Z,26.08
2017-08-01T12:33:47.030Z,26.11
2017-08-01T12:34:46.933Z,26.19
2017-08-01T12:35:46.933Z,26.26
2017-08-01T12:36:46.663Z,26.32
2017-08-01T12:37:46.298Z,26.26
2017-08-01T12:38:46.901Z,26.24
2017-08-01T12:39:46.601Z,26.22
2017-08-01T12:40:46.900Z,25.81
2017-08-01T12:41:46.589Z,25.85
2017-08-01T12:42:46.861Z,25.82
2017-08-01T12:43:47.063Z,25.88
2017-08-01T12:44:46.537Z,25.86
2017-08-01T12:45:46.523Z,25.88
2017-08-01T12:46:46.505Z,25.7
2017-08-01T12:47:46.823Z,25.69
2017-08-01T12:48:46.808Z,25.64
2017-08-01T12:49:46.792Z,25.71
2017-08-01T12:50:46.780Z,25.66
2017-08-01T12:51:46.150Z,25.45
2017-08-01T12:52:46.459Z,25.47
2017-08-01T12:53:46.445Z,25.3
2017-08-01T12:54:46.420Z,25.36
2017-08-01T12:55:46.722Z,25.39
2017-08-01T12:56:46.414Z,25.42